createdAt,value
2023-04-18T00:00:48.272Z,97322.63
2023-04-18T00:03:17.485Z,97323.98
2023-04-18T00:05:47.307Z,97319.36
2023-04-18T00:08:15.007Z,97326.13
2023-04-18T00:10:42.528Z,97325.56
2023-04-18T00:13:10.255Z,97327.48
2023-04-18T00:15:37.934Z,97330.42
2023-04-18T00:18:05.814Z,97327.70
2023-04-18T00:20:33.765Z,97330.64
2023-04-18T00:23:01.951Z,97327.41
2023-04-18T00:25:29.726Z,97334.96
2023-04-18T00:27:58.517Z,97330.64
2023-04-18T00:30:26.596Z,97326.58
2023-04-18T00:32:54.468Z,97324.21
2023-04-18T00:35:22.246Z,97325.91
2023-04-18T00:37:50.458Z,97325.65
2023-04-18T00:40:18.584Z,97321.36
2023-04-18T00:42:46.326Z,97319.45
2023-04-18T00:45:14.834Z,97318.09
2023-04-18T00:47:42.576Z,97319.22
2023-04-18T00:50:12.000Z,97319.55
2023-04-18T00:52:40.652Z,97315.23
2023-04-18T00:55:09.110Z,97313.02
2023-04-18T00:57:37.248Z,97311.32
2023-04-18T01:00:10.440Z,97302.64
2023-04-18T01:02:39.327Z,97299.50
2023-04-18T01:05:08.235Z,97301.34
2023-04-18T01:07:39.718Z,97301.34
2023-04-18T01:10:10.181Z,97294.56
2023-04-18T01:12:38.073Z,97293.22
2023-04-18T01:15:07.103Z,97292.31
2023-04-18T01:17:35.788Z,97292.88
2023-04-18T01:20:05.839Z,97290.95
2023-04-18T01:22:34.201Z,97293.13
2023-04-18T01:25:08.141Z,97296.86
2023-04-18T01:27:35.728Z,97292.56
2023-04-18T01:30:03.941Z,97290.73
2023-04-18T01:32:31.635Z,97293.44
2023-04-18T01:34:59.397Z,97290.95
2023-04-18T01:37:27.533Z,97285.55
2023-04-18T01:39:54.966Z,97283.97
2023-04-18T01:42:22.710Z,97288.25
2023-04-18T01:44:50.524Z,97286.45
2023-04-18T01:47:18.267Z,97290.59
2023-04-18T01:49:47.856Z,97286.88
2023-04-18T01:52:16.796Z,97288.00
2023-04-18T01:54:44.563Z,97286.39
2023-04-18T01:57:13.435Z,97292.71
2023-04-18T01:59:41.166Z,97288.50
2023-04-18T02:02:10.820Z,97286.45
2023-04-18T02:04:38.588Z,97290.36
2023-04-18T02:07:06.221Z,97294.31
2023-04-18T02:09:33.762Z,97291.46
2023-04-18T02:12:02.247Z,97294.33
2023-04-18T02:14:34.797Z,97292.05
2023-04-18T02:17:02.609Z,97289.73
2023-04-18T02:19:30.566Z,97290.40
2023-04-18T02:21:58.137Z,97297.09
2023-04-18T02:24:25.943Z,97287.81
2023-04-18T02:26:53.542Z,97296.34
2023-04-18T02:29:21.382Z,97291.12
2023-04-18T02:31:49.115Z,97296.95
2023-04-18T02:34:16.877Z,97295.75
2023-04-18T02:36:44.596Z,97300.22
2023-04-18T02:39:12.294Z,97304.45
2023-04-18T02:41:40.014Z,97307.68
2023-04-18T02:44:08.645Z,97307.04
2023-04-18T02:46:38.066Z,97309.44
2023-04-18T02:49:07.298Z,97307.14
2023-04-18T02:51:35.188Z,97307.95
2023-04-18T02:54:03.237Z,97298.20
2023-04-18T02:56:32.978Z,97304.47
2023-04-18T02:59:14.363Z,97302.40
2023-04-18T03:01:49.571Z,97306.94
2023-04-18T03:04:18.993Z,97303.34
2023-04-18T03:06:49.657Z,97308.91
2023-04-18T03:09:17.721Z,97307.95
2023-04-18T03:11:47.448Z,97301.12
2023-04-18T03:14:15.443Z,97301.27
2023-04-18T03:16:53.880Z,97304.43
2023-04-18T03:19:22.472Z,97300.30
2023-04-18T03:21:50.891Z,97298.88
2023-04-18T03:24:18.457Z,97297.98
2023-04-18T03:26:47.926Z,97299.56
2023-04-18T03:29:16.109Z,97298.21
2023-04-18T03:31:44.888Z,97300.45
2023-04-18T03:34:12.833Z,97306.50
2023-04-18T03:36:40.864Z,97300.87
2023-04-18T03:39:09.241Z,97306.05
2023-04-18T03:41:36.984Z,97304.99
2023-04-18T03:44:05.536Z,97309.38
2023-04-18T03:46:35.368Z,97307.02
2023-04-18T03:49:03.966Z,97310.34
2023-04-18T03:51:37.177Z,97314.80
2023-04-18T03:54:05.233Z,97317.13
2023-04-18T03:56:33.151Z,97312.91
2023-04-18T03:59:00.901Z,97318.16
2023-04-18T04:01:28.750Z,97322.94
2023-04-18T04:03:56.527Z,97311.25
2023-04-18T04:06:24.593Z,97324.66
2023-04-18T04:08:52.169Z,97327.70
2023-04-18T04:11:22.240Z,97321.02
2023-04-18T04:13:49.978Z,97329.45
2023-04-18T04:16:19.489Z,97329.52
2023-04-18T04:18:48.975Z,97328.82
2023-04-18T04:21:17.594Z,97332.15
2023-04-18T04:23:51.128Z,97327.60
2023-04-18T04:26:27.237Z,97332.77
2023-04-18T04:28:57.134Z,97332.31
2023-04-18T04:31:26.566Z,97339.63
2023-04-18T04:33:54.195Z,97341.77
2023-04-18T04:36:24.328Z,97344.20
2023-04-18T04:38:52.441Z,97342.33
2023-04-18T04:41:22.418Z,97341.11
2023-04-18T04:43:52.029Z,97343.41
2023-04-18T04:46:22.674Z,97352.47
2023-04-18T04:48:50.953Z,97342.63
2023-04-18T04:51:19.575Z,97352.50
2023-04-18T04:53:47.005Z,97348.35
2023-04-18T04:56:14.471Z,97350.66
2023-04-18T04:58:42.027Z,97351.31
2023-04-18T05:01:17.518Z,97341.98
2023-04-18T05:03:45.394Z,97353.45
2023-04-18T05:06:13.780Z,97344.61
2023-04-18T05:08:41.415Z,97347.40
2023-04-18T05:11:09.032Z,97343.17
2023-04-18T05:13:36.549Z,97346.83
2023-04-18T05:16:04.916Z,97345.06
2023-04-18T05:18:34.922Z,97350.30
2023-04-18T05:21:02.378Z,97348.31
2023-04-18T05:23:30.278Z,97353.55
2023-04-18T05:25:57.710Z,97350.66
2023-04-18T05:28:26.895Z,97348.37
2023-04-18T05:30:56.492Z,97348.75
2023-04-18T05:33:24.030Z,97342.94
2023-04-18T05:36:09.510Z,97342.98
2023-04-18T05:38:37.325Z,97336.36
2023-04-18T05:41:05.181Z,97349.63
2023-04-18T05:43:32.757Z,97342.91
2023-04-18T05:46:00.403Z,97341.99
2023-04-18T05:48:28.094Z,97344.17
2023-04-18T05:50:55.700Z,97344.47
2023-04-18T05:53:23.429Z,97344.77
2023-04-18T05:55:51.259Z,97343.92
2023-04-18T05:58:19.078Z,97344.44
2023-04-18T06:00:47.876Z,97341.90
2023-04-18T06:03:16.051Z,97347.97
2023-04-18T06:05:44.425Z,97343.50
2023-04-18T06:08:12.088Z,97344.48
2023-04-18T06:10:39.598Z,97351.11
2023-04-18T06:13:07.117Z,97348.89
2023-04-18T06:15:35.583Z,97343.05
2023-04-18T06:18:03.203Z,97340.83
2023-04-18T06:20:30.705Z,97349.45
2023-04-18T06:22:58.143Z,97342.02
2023-04-18T06:25:25.969Z,97335.97
2023-04-18T06:27:53.882Z,97332.70
2023-04-18T06:30:21.696Z,97339.10
2023-04-18T06:32:49.630Z,97336.98
2023-04-18T06:35:17.456Z,97335.53
2023-04-18T06:37:48.233Z,97333.27
2023-04-18T06:40:16.101Z,97332.49
2023-04-18T06:42:43.854Z,97334.78
2023-04-18T06:45:12.155Z,97327.98
2023-04-18T06:47:40.419Z,97328.64
2023-04-18T06:50:09.364Z,97322.08
2023-04-18T06:52:38.887Z,97326.59
2023-04-18T06:55:08.740Z,97326.34
2023-04-18T06:57:38.310Z,97330.18
2023-04-18T07:00:07.222Z,97333.55
2023-04-18T07:02:37.200Z,97325.64
2023-04-18T07:05:06.329Z,97336.95
2023-04-18T07:07:34.906Z,97330.29
2023-04-18T07:10:02.516Z,97332.41
2023-04-18T07:12:30.104Z,97337.37
2023-04-18T07:14:57.771Z,97330.89
2023-04-18T07:17:25.381Z,97333.23
2023-04-18T07:19:52.948Z,97332.77
